Other Surface Observations
Issued by NWS Missoula, MT

Home | Current Version | Previous Version | Text Only | Print | Product List | Glossary On
Versions: 1 2 3 4 5 6 7 8 9 10 11 12 13 14 15 16 17 18 19 20 21 22 23 24 25 26 27 28 29 30 31 32 33 34 35 36 37 38 39 40 41 42 43 44 45 46 47 48 49 50
000
SXUS55 KMSO 031623
OSOMSO
MONTANA AWOS SUMMARY
NATIONAL WEATHER SERVICE MISSOULA MT
1023 AM MDT FRI JUL 3 2015

Montana AWOS Reports

LAUREL      |K6S8 031615Z AUTO 00000KT 10SM 24/12 A3002 RMK AO1 T02390117
TWIN BRIDGES|K7S1 031615Z AUTO 23004KT 25SM 22/09 A3006 RMK AO1 T02220094
ROUNDUP     |KRPX 031615Z AUTO 00000KT 25SM 24/11 A2994 RMK AO1 T02440111
MALTA       |KM75 031615Z AUTO 00000KT 15SM 26/14 A2993 RMK AO1 T02610144




USA.gov is the U.S. government's official web portal to all federal, state and local government web resources and services.